Terminal Aerodrome Forecast
Issued by NWS

Home | Current Version | Previous Version | Text Only | Print | Product List | Glossary On
Versions: 1 2 3 4 5 6 7 8 9 10 11 12 13 14 15 16 17 18 19 20 21 22 23 24 25 26 27 28
000
FTUS45 KSLC 221120
TAF36U
TAF
K36U 221120Z 2212/2312 VRB05KT P6SM SCT130
     FM221700 21012G18KT P6SM SCT130
     FM222300 33010KT P6SM -SHRA BKN050 OVC070
     FM230200 29010KT P6SM -RA BKN035 OVC050
     FM230700 VRB05KT P6SM -SHRA BKN040 OVC060=

USA.gov is the U.S. government's official web portal to all federal, state and local government web resources and services.